sensor_id;sensor_type;location;lat;lon;timestamp;temperature;humidity
7362;DHT22;3721;44.490;11.220;2022-10-26T00:00:38;19.20;98.60
7362;DHT22;3721;44.490;11.220;2022-10-26T00:03:04;19.10;98.60
7362;DHT22;3721;44.490;11.220;2022-10-26T00:05:32;19.10;98.70
7362;DHT22;3721;44.490;11.220;2022-10-26T00:07:59;19.10;98.80
7362;DHT22;3721;44.490;11.220;2022-10-26T00:10:25;19.10;98.70
7362;DHT22;3721;44.490;11.220;2022-10-26T00:12:51;19.10;98.80
7362;DHT22;3721;44.490;11.220;2022-10-26T00:15:19;19.10;98.70
7362;DHT22;3721;44.490;11.220;2022-10-26T00:17:47;19.10;98.80
7362;DHT22;3721;44.490;11.220;2022-10-26T00:20:13;19.10;98.80
7362;DHT22;3721;44.490;11.220;2022-10-26T00:22:39;19.00;98.70
7362;DHT22;3721;44.490;11.220;2022-10-26T00:25:05;19.00;98.70
7362;DHT22;3721;44.490;11.220;2022-10-26T00:27:32;19.00;98.70
7362;DHT22;3721;44.490;11.220;2022-10-26T00:29:59;19.00;98.70
7362;DHT22;3721;44.490;11.220;2022-10-26T00:32:25;19.00;98.70
7362;DHT22;3721;44.490;11.220;2022-10-26T00:34:51;19.00;98.70
7362;DHT22;3721;44.490;11.220;2022-10-26T00:37:17;18.90;98.70
7362;DHT22;3721;44.490;11.220;2022-10-26T00:39:42;18.90;98.60
7362;DHT22;3721;44.490;11.220;2022-10-26T00:42:18;18.90;98.60
7362;DHT22;3721;44.490;11.220;2022-10-26T00:47:40;18.90;98.60
7362;DHT22;3721;44.490;11.220;2022-10-26T00:50:34;18.90;98.60
7362;DHT22;3721;44.490;11.220;2022-10-26T00:53:00;18.90;98.50
7362;DHT22;3721;44.490;11.220;2022-10-26T00:55:33;18.80;98.40
7362;DHT22;3721;44.490;11.220;2022-10-26T00:58:02;18.80;98.40
7362;DHT22;3721;44.490;11.220;2022-10-26T01:00:29;18.80;98.50
7362;DHT22;3721;44.490;11.220;2022-10-26T01:02:58;18.80;98.50
7362;DHT22;3721;44.490;11.220;2022-10-26T01:05:26;18.70;98.40
7362;DHT22;3721;44.490;11.220;2022-10-26T01:07:53;18.70;98.40
7362;DHT22;3721;44.490;11.220;2022-10-26T01:10:20;18.70;98.50
7362;DHT22;3721;44.490;11.220;2022-10-26T01:12:46;18.70;98.50
7362;DHT22;3721;44.490;11.220;2022-10-26T01:15:12;18.70;98.50
7362;DHT22;3721;44.490;11.220;2022-10-26T01:17:55;18.70;98.60
7362;DHT22;3721;44.490;11.220;2022-10-26T01:23:07;18.60;98.60
7362;DHT22;3721;44.490;11.220;2022-10-26T01:31:30;18.70;98.80
7362;DHT22;3721;44.490;11.220;2022-10-26T01:34:05;18.70;98.90
7362;DHT22;3721;44.490;11.220;2022-10-26T01:36:45;18.70;98.90
7362;DHT22;3721;44.490;11.220;2022-10-26T01:39:27;18.70;98.90
7362;DHT22;3721;44.490;11.220;2022-10-26T01:41:59;18.70;99.00
7362;DHT22;3721;44.490;11.220;2022-10-26T01:44:31;18.70;99.00
7362;DHT22;3721;44.490;11.220;2022-10-26T01:47:00;18.70;99.00
7362;DHT22;3721;44.490;11.220;2022-10-26T01:49:32;18.70;99.00
7362;DHT22;3721;44.490;11.220;2022-10-26T01:51:59;18.60;99.10
7362;DHT22;3721;44.490;11.220;2022-10-26T01:54:24;18.60;99.10
7362;DHT22;3721;44.490;11.220;2022-10-26T01:56:53;18.70;99.20
7362;DHT22;3721;44.490;11.220;2022-10-26T02:07:54;18.60;99.30
7362;DHT22;3721;44.490;11.220;2022-10-26T02:10:52;18.60;99.30
7362;DHT22;3721;44.490;11.220;2022-10-26T02:13:45;18.70;99.40
7362;DHT22;3721;44.490;11.220;2022-10-26T02:21:21;18.70;99.40
7362;DHT22;3721;44.490;11.220;2022-10-26T02:23:50;18.70;99.30
7362;DHT22;3721;44.490;11.220;2022-10-26T02:26:20;18.70;99.30
7362;DHT22;3721;44.490;11.220;2022-10-26T02:28:49;18.70;99.30
7362;DHT22;3721;44.490;11.220;2022-10-26T02:31:16;18.60;99.20
7362;DHT22;3721;44.490;11.220;2022-10-26T02:33:48;18.60;99.30
7362;DHT22;3721;44.490;11.220;2022-10-26T02:36:23;18.60;99.20
7362;DHT22;3721;44.490;11.220;2022-10-26T02:38:50;18.60;99.00
7362;DHT22;3721;44.490;11.220;2022-10-26T02:41:19;18.50;99.10
7362;DHT22;3721;44.490;11.220;2022-10-26T02:43:56;18.40;99.10
7362;DHT22;3721;44.490;11.220;2022-10-26T02:46:25;18.40;99.10
7362;DHT22;3721;44.490;11.220;2022-10-26T02:48:52;18.40;99.10
7362;DHT22;3721;44.490;11.220;2022-10-26T02:51:33;18.40;99.10
7362;DHT22;3721;44.490;11.220;2022-10-26T02:54:13;18.40;99.10
7362;DHT22;3721;44.490;11.220;2022-10-26T02:59:27;18.30;99.00
7362;DHT22;3721;44.490;11.220;2022-10-26T03:01:53;18.40;99.10
7362;DHT22;3721;44.490;11.220;2022-10-26T03:04:19;18.30;99.10
7362;DHT22;3721;44.490;11.220;2022-10-26T03:06:53;18.30;99.00
7362;DHT22;3721;44.490;11.220;2022-10-26T03:09:18;18.20;98.90
7362;DHT22;3721;44.490;11.220;2022-10-26T03:11:44;18.20;98.90
7362;DHT22;3721;44.490;11.220;2022-10-26T03:14:10;18.20;98.90
7362;DHT22;3721;44.490;11.220;2022-10-26T03:16:35;18.20;98.90
7362;DHT22;3721;44.490;11.220;2022-10-26T03:19:01;18.20;99.00
7362;DHT22;3721;44.490;11.220;2022-10-26T03:21:27;18.20;98.90
7362;DHT22;3721;44.490;11.220;2022-10-26T03:23:53;18.20;98.90
7362;DHT22;3721;44.490;11.220;2022-10-26T03:26:19;18.20;98.90
7362;DHT22;3721;44.490;11.220;2022-10-26T03:28:44;18.20;98.90
7362;DHT22;3721;44.490;11.220;2022-10-26T03:31:10;18.10;98.80
7362;DHT22;3721;44.490;11.220;2022-10-26T03:33:36;18.10;98.80
7362;DHT22;3721;44.490;11.220;2022-10-26T03:36:02;18.10;98.90
7362;DHT22;3721;44.490;11.220;2022-10-26T03:38:27;18.10;98.90
7362;DHT22;3721;44.490;11.220;2022-10-26T03:40:53;18.10;98.90
7362;DHT22;3721;44.490;11.220;2022-10-26T03:43:19;18.10;99.00
7362;DHT22;3721;44.490;11.220;2022-10-26T03:45:45;18.10;99.00
7362;DHT22;3721;44.490;11.220;2022-10-26T03:48:11;18.10;99.00
7362;DHT22;3721;44.490;11.220;2022-10-26T03:50:37;18.10;99.00
7362;DHT22;3721;44.490;11.220;2022-10-26T03:53:02;18.10;98.90
7362;DHT22;3721;44.490;11.220;2022-10-26T03:55:28;18.10;98.90
7362;DHT22;3721;44.490;11.220;2022-10-26T03:57:54;18.10;98.90
7362;DHT22;3721;44.490;11.220;2022-10-26T04:00:19;18.10;98.90
7362;DHT22;3721;44.490;11.220;2022-10-26T04:02:56;18.00;98.80
7362;DHT22;3721;44.490;11.220;2022-10-26T04:05:23;17.90;98.70
7362;DHT22;3721;44.490;11.220;2022-10-26T04:07:56;17.90;98.70
7362;DHT22;3721;44.490;11.220;2022-10-26T04:10:23;17.90;98.80
7362;DHT22;3721;44.490;11.220;2022-10-26T04:12:49;17.90;98.80
7362;DHT22;3721;44.490;11.220;2022-10-26T04:15:16;17.90;98.80
7362;DHT22;3721;44.490;11.220;2022-10-26T04:17:42;17.90;98.80
7362;DHT22;3721;44.490;11.220;2022-10-26T04:20:08;17.80;98.80
7362;DHT22;3721;44.490;11.220;2022-10-26T04:22:34;17.80;98.80
7362;DHT22;3721;44.490;11.220;2022-10-26T04:25:04;17.80;98.80
7362;DHT22;3721;44.490;11.220;2022-10-26T04:27:30;17.80;98.80
7362;DHT22;3721;44.490;11.220;2022-10-26T04:29:56;17.80;98.70
7362;DHT22;3721;44.490;11.220;2022-10-26T04:32:21;17.80;98.70
7362;DHT22;3721;44.490;11.220;2022-10-26T04:34:47;17.80;98.80
7362;DHT22;3721;44.490;11.220;2022-10-26T04:37:13;17.70;98.70
7362;DHT22;3721;44.490;11.220;2022-10-26T04:39:39;17.70;98.70
7362;DHT22;3721;44.490;11.220;2022-10-26T04:42:04;17.60;98.70
7362;DHT22;3721;44.490;11.220;2022-10-26T04:44:30;17.60;98.70
7362;DHT22;3721;44.490;11.220;2022-10-26T04:46:56;17.60;98.80
7362;DHT22;3721;44.490;11.220;2022-10-26T04:49:21;17.60;98.90
7362;DHT22;3721;44.490;11.220;2022-10-26T04:51:47;17.60;98.90
7362;DHT22;3721;44.490;11.220;2022-10-26T04:54:13;17.60;98.80
7362;DHT22;3721;44.490;11.220;2022-10-26T04:56:39;17.60;99.00
7362;DHT22;3721;44.490;11.220;2022-10-26T04:59:05;17.60;98.70
7362;DHT22;3721;44.490;11.220;2022-10-26T05:01:31;17.60;98.70
7362;DHT22;3721;44.490;11.220;2022-10-26T05:03:56;17.60;98.70
7362;DHT22;3721;44.490;11.220;2022-10-26T05:06:22;17.60;98.70
7362;DHT22;3721;44.490;11.220;2022-10-26T05:08:48;17.60;98.70
7362;DHT22;3721;44.490;11.220;2022-10-26T05:11:14;17.60;98.70
7362;DHT22;3721;44.490;11.220;2022-10-26T05:13:40;17.60;98.60
7362;DHT22;3721;44.490;11.220;2022-10-26T05:16:06;17.60;98.60
7362;DHT22;3721;44.490;11.220;2022-10-26T05:18:32;17.60;98.60
7362;DHT22;3721;44.490;11.220;2022-10-26T05:20:58;17.60;98.60
7362;DHT22;3721;44.490;11.220;2022-10-26T05:23:24;17.50;98.60
7362;DHT22;3721;44.490;11.220;2022-10-26T05:25:49;17.50;98.60
7362;DHT22;3721;44.490;11.220;2022-10-26T05:28:16;17.50;98.60
7362;DHT22;3721;44.490;11.220;2022-10-26T05:30:44;17.50;98.60
7362;DHT22;3721;44.490;11.220;2022-10-26T05:33:11;17.50;98.60
7362;DHT22;3721;44.490;11.220;2022-10-26T05:35:37;17.50;98.60
7362;DHT22;3721;44.490;11.220;2022-10-26T05:38:10;17.50;98.60
7362;DHT22;3721;44.490;11.220;2022-10-26T05:40:37;17.50;98.60
7362;DHT22;3721;44.490;11.220;2022-10-26T05:43:03;17.40;98.60
7362;DHT22;3721;44.490;11.220;2022-10-26T05:45:29;17.40;98.70
7362;DHT22;3721;44.490;11.220;2022-10-26T05:47:55;17.50;98.70
7362;DHT22;3721;44.490;11.220;2022-10-26T05:50:20;17.40;98.60
7362;DHT22;3721;44.490;11.220;2022-10-26T05:52:46;17.40;98.60
7362;DHT22;3721;44.490;11.220;2022-10-26T05:55:15;17.40;98.70
7362;DHT22;3721;44.490;11.220;2022-10-26T05:57:41;17.40;98.70
7362;DHT22;3721;44.490;11.220;2022-10-26T06:00:11;17.40;98.70
7362;DHT22;3721;44.490;11.220;2022-10-26T06:02:47;17.40;98.70
7362;DHT22;3721;44.490;11.220;2022-10-26T06:05:20;17.40;98.70
7362;DHT22;3721;44.490;11.220;2022-10-26T06:07:47;17.50;98.80
7362;DHT22;3721;44.490;11.220;2022-10-26T06:10:13;17.50;98.80
7362;DHT22;3721;44.490;11.220;2022-10-26T06:12:39;17.40;98.80
7362;DHT22;3721;44.490;11.220;2022-10-26T06:15:06;17.50;98.80
7362;DHT22;3721;44.490;11.220;2022-10-26T06:28:28;17.60;99.20
7362;DHT22;3721;44.490;11.220;2022-10-26T06:30:57;17.60;99.20
7362;DHT22;3721;44.490;11.220;2022-10-26T06:33:23;17.70;99.30
7362;DHT22;3721;44.490;11.220;2022-10-26T06:36:21;17.70;99.30
7362;DHT22;3721;44.490;11.220;2022-10-26T06:38:51;17.70;99.30
7362;DHT22;3721;44.490;11.220;2022-10-26T06:41:19;17.80;99.40
7362;DHT22;3721;44.490;11.220;2022-10-26T06:43:45;17.80;99.40
7362;DHT22;3721;44.490;11.220;2022-10-26T06:52:09;18.00;99.60
7362;DHT22;3721;44.490;11.220;2022-10-26T06:54:55;18.00;99.60
7362;DHT22;3721;44.490;11.220;2022-10-26T06:57:23;18.10;99.70
7362;DHT22;3721;44.490;11.220;2022-10-26T07:02:29;18.20;99.80
7362;DHT22;3721;44.490;11.220;2022-10-26T07:04:54;18.20;99.80
7362;DHT22;3721;44.490;11.220;2022-10-26T07:07:26;18.20;99.80
7362;DHT22;3721;44.490;11.220;2022-10-26T07:09:52;18.30;99.80
7362;DHT22;3721;44.490;11.220;2022-10-26T07:12:18;18.30;99.80
7362;DHT22;3721;44.490;11.220;2022-10-26T07:14:43;18.30;99.80
7362;DHT22;3721;44.490;11.220;2022-10-26T07:17:10;18.40;99.90
7362;DHT22;3721;44.490;11.220;2022-10-26T07:19:35;18.40;99.90
7362;DHT22;3721;44.490;11.220;2022-10-26T07:22:01;18.40;99.90
7362;DHT22;3721;44.490;11.220;2022-10-26T07:24:27;18.50;99.90
7362;DHT22;3721;44.490;11.220;2022-10-26T07:26:54;18.50;99.90
7362;DHT22;3721;44.490;11.220;2022-10-26T07:29:21;18.60;99.90
7362;DHT22;3721;44.490;11.220;2022-10-26T07:31:47;18.60;99.90
7362;DHT22;3721;44.490;11.220;2022-10-26T07:34:13;18.60;99.90
7362;DHT22;3721;44.490;11.220;2022-10-26T07:36:38;18.60;99.90
7362;DHT22;3721;44.490;11.220;2022-10-26T07:39:05;18.60;99.90
7362;DHT22;3721;44.490;11.220;2022-10-26T07:41:31;18.70;99.90
7362;DHT22;3721;44.490;11.220;2022-10-26T07:43:57;18.70;99.90
7362;DHT22;3721;44.490;11.220;2022-10-26T07:46:23;18.70;99.90
7362;DHT22;3721;44.490;11.220;2022-10-26T07:48:49;18.70;99.90
7362;DHT22;3721;44.490;11.220;2022-10-26T07:51:15;18.80;99.90
7362;DHT22;3721;44.490;11.220;2022-10-26T07:53:40;18.80;99.90
7362;DHT22;3721;44.490;11.220;2022-10-26T07:56:07;18.80;99.90
7362;DHT22;3721;44.490;11.220;2022-10-26T07:58:33;18.90;99.90
7362;DHT22;3721;44.490;11.220;2022-10-26T08:01:08;18.90;99.90
7362;DHT22;3721;44.490;11.220;2022-10-26T08:03:34;19.00;99.90
7362;DHT22;3721;44.490;11.220;2022-10-26T08:06:00;19.00;99.90
7362;DHT22;3721;44.490;11.220;2022-10-26T08:08:26;19.10;99.90
7362;DHT22;3721;44.490;11.220;2022-10-26T08:10:52;19.20;99.90
7362;DHT22;3721;44.490;11.220;2022-10-26T08:13:17;19.20;99.90
7362;DHT22;3721;44.490;11.220;2022-10-26T08:15:43;19.20;99.90
7362;DHT22;3721;44.490;11.220;2022-10-26T08:18:09;19.30;99.90
7362;DHT22;3721;44.490;11.220;2022-10-26T08:20:35;19.30;99.90
7362;DHT22;3721;44.490;11.220;2022-10-26T08:23:00;19.30;99.90
7362;DHT22;3721;44.490;11.220;2022-10-26T08:25:28;19.40;99.90
7362;DHT22;3721;44.490;11.220;2022-10-26T08:27:54;19.40;99.90
7362;DHT22;3721;44.490;11.220;2022-10-26T08:30:20;19.50;99.90
7362;DHT22;3721;44.490;11.220;2022-10-26T08:32:45;19.50;99.90
7362;DHT22;3721;44.490;11.220;2022-10-26T08:35:11;19.50;99.90
7362;DHT22;3721;44.490;11.220;2022-10-26T08:37:37;19.60;99.90
7362;DHT22;3721;44.490;11.220;2022-10-26T08:40:03;19.60;99.90
7362;DHT22;3721;44.490;11.220;2022-10-26T08:42:36;19.70;99.90
7362;DHT22;3721;44.490;11.220;2022-10-26T08:45:12;19.70;99.90
7362;DHT22;3721;44.490;11.220;2022-10-26T08:47:48;19.80;99.90
7362;DHT22;3721;44.490;11.220;2022-10-26T08:53:52;20.00;99.90
7362;DHT22;3721;44.490;11.220;2022-10-26T08:56:26;20.00;99.90
7362;DHT22;3721;44.490;11.220;2022-10-26T08:59:05;20.10;99.90
7362;DHT22;3721;44.490;11.220;2022-10-26T09:01:34;20.20;99.90
7362;DHT22;3721;44.490;11.220;2022-10-26T09:04:02;20.20;99.90
7362;DHT22;3721;44.490;11.220;2022-10-26T09:09:06;20.30;99.90
7362;DHT22;3721;44.490;11.220;2022-10-26T09:14:51;20.40;99.90
7362;DHT22;3721;44.490;11.220;2022-10-26T09:21:09;20.50;99.90
7362;DHT22;3721;44.490;11.220;2022-10-26T09:26:13;20.60;99.90
7362;DHT22;3721;44.490;11.220;2022-10-26T09:28:40;20.60;99.90
7362;DHT22;3721;44.490;11.220;2022-10-26T09:31:12;20.60;99.90
7362;DHT22;3721;44.490;11.220;2022-10-26T09:33:39;20.70;99.90
7362;DHT22;3721;44.490;11.220;2022-10-26T09:36:08;20.70;99.90
7362;DHT22;3721;44.490;11.220;2022-10-26T09:41:31;20.80;99.90
7362;DHT22;3721;44.490;11.220;2022-10-26T09:52:06;20.90;99.90
7362;DHT22;3721;44.490;11.220;2022-10-26T09:54:32;20.90;99.90
7362;DHT22;3721;44.490;11.220;2022-10-26T09:56:59;21.00;99.80
7362;DHT22;3721;44.490;11.220;2022-10-26T09:59:27;21.00;99.60
7362;DHT22;3721;44.490;11.220;2022-10-26T10:01:54;21.10;99.50
7362;DHT22;3721;44.490;11.220;2022-10-26T10:04:21;21.10;99.50
7362;DHT22;3721;44.490;11.220;2022-10-26T10:07:04;21.20;99.40
7362;DHT22;3721;44.490;11.220;2022-10-26T10:09:36;21.20;99.30
7362;DHT22;3721;44.490;11.220;2022-10-26T10:12:02;21.20;99.30
7362;DHT22;3721;44.490;11.220;2022-10-26T10:14:32;21.20;99.20
7362;DHT22;3721;44.490;11.220;2022-10-26T10:17:03;21.30;99.10
7362;DHT22;3721;44.490;11.220;2022-10-26T10:19:32;21.30;99.20
7362;DHT22;3721;44.490;11.220;2022-10-26T10:22:00;21.40;99.10
7362;DHT22;3721;44.490;11.220;2022-10-26T10:29:43;21.50;99.00
7362;DHT22;3721;44.490;11.220;2022-10-26T10:32:23;21.50;98.90
7362;DHT22;3721;44.490;11.220;2022-10-26T10:34:54;21.50;98.80
7362;DHT22;3721;44.490;11.220;2022-10-26T10:37:33;21.50;98.80
7362;DHT22;3721;44.490;11.220;2022-10-26T10:40:05;21.50;98.70
7362;DHT22;3721;44.490;11.220;2022-10-26T10:42:33;21.60;98.80
7362;DHT22;3721;44.490;11.220;2022-10-26T10:45:00;21.60;98.70
7362;DHT22;3721;44.490;11.220;2022-10-26T10:47:30;21.70;98.70
7362;DHT22;3721;44.490;11.220;2022-10-26T10:50:16;21.70;98.60
7362;DHT22;3721;44.490;11.220;2022-10-26T10:52:43;21.80;98.60
7362;DHT22;3721;44.490;11.220;2022-10-26T10:57:53;21.90;98.40
7362;DHT22;3721;44.490;11.220;2022-10-26T11:00:24;21.90;98.40
7362;DHT22;3721;44.490;11.220;2022-10-26T11:03:54;21.90;98.30
7362;DHT22;3721;44.490;11.220;2022-10-26T11:08:46;22.00;98.30
7362;DHT22;3721;44.490;11.220;2022-10-26T11:13:50;22.00;98.20
7362;DHT22;3721;44.490;11.220;2022-10-26T11:16:30;22.00;98.10
7362;DHT22;3721;44.490;11.220;2022-10-26T11:19:23;22.10;98.10
7362;DHT22;3721;44.490;11.220;2022-10-26T11:21:55;22.10;98.00
7362;DHT22;3721;44.490;11.220;2022-10-26T11:29:46;22.20;97.90
7362;DHT22;3721;44.490;11.220;2022-10-26T11:32:23;22.20;97.80
7362;DHT22;3721;44.490;11.220;2022-10-26T11:43:58;22.30;97.60
7362;DHT22;3721;44.490;11.220;2022-10-26T11:46:27;22.30;97.50
7362;DHT22;3721;44.490;11.220;2022-10-26T11:48:59;22.40;97.40
7362;DHT22;3721;44.490;11.220;2022-10-26T11:51:37;22.40;97.30
7362;DHT22;3721;44.490;11.220;2022-10-26T11:56:52;22.50;97.10
7362;DHT22;3721;44.490;11.220;2022-10-26T11:59:20;22.50;97.00
7362;DHT22;3721;44.490;11.220;2022-10-26T12:02:03;22.50;96.80
7362;DHT22;3721;44.490;11.220;2022-10-26T12:04:32;22.60;96.70
7362;DHT22;3721;44.490;11.220;2022-10-26T12:07:01;22.60;96.60
7362;DHT22;3721;44.490;11.220;2022-10-26T12:09:35;22.60;96.60
7362;DHT22;3721;44.490;11.220;2022-10-26T12:15:23;22.70;96.40
7362;DHT22;3721;44.490;11.220;2022-10-26T12:17:55;22.70;96.30
7362;DHT22;3721;44.490;11.220;2022-10-26T12:23:11;22.70;95.90
7362;DHT22;3721;44.490;11.220;2022-10-26T12:25:37;22.80;95.90
7362;DHT22;3721;44.490;11.220;2022-10-26T12:28:03;22.80;95.70
7362;DHT22;3721;44.490;11.220;2022-10-26T12:30:31;22.80;95.60
7362;DHT22;3721;44.490;11.220;2022-10-26T12:32:59;22.90;95.60
7362;DHT22;3721;44.490;11.220;2022-10-26T12:35:42;22.90;95.50
7362;DHT22;3721;44.490;11.220;2022-10-26T12:41:18;22.90;95.20
7362;DHT22;3721;44.490;11.220;2022-10-26T12:43:45;23.00;95.30
7362;DHT22;3721;44.490;11.220;2022-10-26T12:48:44;23.00;95.10
7362;DHT22;3721;44.490;11.220;2022-10-26T12:53:48;23.00;95.00
7362;DHT22;3721;44.490;11.220;2022-10-26T12:56:16;23.00;94.90
7362;DHT22;3721;44.490;11.220;2022-10-26T13:07:12;23.20;94.60
7362;DHT22;3721;44.490;11.220;2022-10-26T13:09:44;23.20;94.50
7362;DHT22;3721;44.490;11.220;2022-10-26T13:12:10;23.20;94.40
7362;DHT22;3721;44.490;11.220;2022-10-26T13:14:39;23.20;94.30
7362;DHT22;3721;44.490;11.220;2022-10-26T13:17:06;23.20;94.20
7362;DHT22;3721;44.490;11.220;2022-10-26T13:19:48;23.30;94.20
7362;DHT22;3721;44.490;11.220;2022-10-26T13:22:20;23.30;94.20
7362;DHT22;3721;44.490;11.220;2022-10-26T13:24:48;23.30;94.10
7362;DHT22;3721;44.490;11.220;2022-10-26T13:32:34;23.30;94.00
7362;DHT22;3721;44.490;11.220;2022-10-26T13:35:01;23.30;94.00
7362;DHT22;3721;44.490;11.220;2022-10-26T13:37:30;23.40;93.90
7362;DHT22;3721;44.490;11.220;2022-10-26T13:39:58;23.40;93.80
7362;DHT22;3721;44.490;11.220;2022-10-26T13:42:27;23.40;93.60
7362;DHT22;3721;44.490;11.220;2022-10-26T13:45:11;23.40;93.60
7362;DHT22;3721;44.490;11.220;2022-10-26T13:47:42;23.40;93.50
7362;DHT22;3721;44.490;11.220;2022-10-26T13:50:14;23.40;93.50
7362;DHT22;3721;44.490;11.220;2022-10-26T13:52:47;23.40;93.40
7362;DHT22;3721;44.490;11.220;2022-10-26T13:55:32;23.40;93.20
7362;DHT22;3721;44.490;11.220;2022-10-26T14:01:20;23.50;93.30
7362;DHT22;3721;44.490;11.220;2022-10-26T14:03:47;23.50;93.20
7362;DHT22;3721;44.490;11.220;2022-10-26T14:06:33;23.50;93.20
7362;DHT22;3721;44.490;11.220;2022-10-26T14:09:03;23.50;93.20
7362;DHT22;3721;44.490;11.220;2022-10-26T14:14:17;23.50;93.00
7362;DHT22;3721;44.490;11.220;2022-10-26T14:16:45;23.60;92.90
7362;DHT22;3721;44.490;11.220;2022-10-26T14:19:27;23.60;92.80
7362;DHT22;3721;44.490;11.220;2022-10-26T14:21:54;23.60;92.80
7362;DHT22;3721;44.490;11.220;2022-10-26T14:24:32;23.60;92.80
7362;DHT22;3721;44.490;11.220;2022-10-26T14:26:58;23.60;92.80
7362;DHT22;3721;44.490;11.220;2022-10-26T14:29:26;23.60;92.70
7362;DHT22;3721;44.490;11.220;2022-10-26T14:31:52;23.60;92.70
7362;DHT22;3721;44.490;11.220;2022-10-26T14:34:19;23.60;92.70
7362;DHT22;3721;44.490;11.220;2022-10-26T14:36:49;23.60;92.70
7362;DHT22;3721;44.490;11.220;2022-10-26T14:39:41;23.60;92.70
7362;DHT22;3721;44.490;11.220;2022-10-26T14:44:42;23.50;92.60
7362;DHT22;3721;44.490;11.220;2022-10-26T14:47:24;23.50;92.60
7362;DHT22;3721;44.490;11.220;2022-10-26T14:49:52;23.50;92.60
7362;DHT22;3721;44.490;11.220;2022-10-26T14:52:25;23.50;92.60
7362;DHT22;3721;44.490;11.220;2022-10-26T14:55:00;23.50;92.60
7362;DHT22;3721;44.490;11.220;2022-10-26T14:57:40;23.50;92.50
7362;DHT22;3721;44.490;11.220;2022-10-26T15:00:16;23.40;92.50
7362;DHT22;3721;44.490;11.220;2022-10-26T15:02:47;23.40;92.50
7362;DHT22;3721;44.490;11.220;2022-10-26T15:07:45;23.40;92.50
7362;DHT22;3721;44.490;11.220;2022-10-26T15:15:34;23.40;92.50
7362;DHT22;3721;44.490;11.220;2022-10-26T15:18:00;23.40;92.50
7362;DHT22;3721;44.490;11.220;2022-10-26T15:20:27;23.40;92.50
7362;DHT22;3721;44.490;11.220;2022-10-26T15:22:58;23.40;92.50
7362;DHT22;3721;44.490;11.220;2022-10-26T15:25:32;23.40;92.80
7362;DHT22;3721;44.490;11.220;2022-10-26T15:33:42;23.30;92.50
7362;DHT22;3721;44.490;11.220;2022-10-26T15:38:37;23.30;92.50
7362;DHT22;3721;44.490;11.220;2022-10-26T15:41:03;23.20;92.50
7362;DHT22;3721;44.490;11.220;2022-10-26T15:43:29;23.20;92.50
7362;DHT22;3721;44.490;11.220;2022-10-26T15:45:55;23.20;92.50
7362;DHT22;3721;44.490;11.220;2022-10-26T15:48:30;23.20;92.60
7362;DHT22;3721;44.490;11.220;2022-10-26T15:50:56;23.20;92.60
7362;DHT22;3721;44.490;11.220;2022-10-26T15:53:24;23.20;92.60
7362;DHT22;3721;44.490;11.220;2022-10-26T15:55:55;23.20;92.60
7362;DHT22;3721;44.490;11.220;2022-10-26T15:58:21;23.10;92.50
7362;DHT22;3721;44.490;11.220;2022-10-26T16:00:47;23.10;92.60
7362;DHT22;3721;44.490;11.220;2022-10-26T16:03:17;23.10;92.60
7362;DHT22;3721;44.490;11.220;2022-10-26T16:05:44;23.10;92.60
7362;DHT22;3721;44.490;11.220;2022-10-26T16:08:15;23.00;92.60
7362;DHT22;3721;44.490;11.220;2022-10-26T16:10:41;23.00;92.70
7362;DHT22;3721;44.490;11.220;2022-10-26T16:13:12;23.00;92.70
7362;DHT22;3721;44.490;11.220;2022-10-26T16:15:38;22.90;92.70
7362;DHT22;3721;44.490;11.220;2022-10-26T16:18:04;22.90;92.80
7362;DHT22;3721;44.490;11.220;2022-10-26T16:20:30;22.80;92.80
7362;DHT22;3721;44.490;11.220;2022-10-26T16:22:55;22.80;92.80
7362;DHT22;3721;44.490;11.220;2022-10-26T16:25:24;22.70;92.80
7362;DHT22;3721;44.490;11.220;2022-10-26T16:27:52;22.70;92.80
7362;DHT22;3721;44.490;11.220;2022-10-26T16:30:19;22.70;92.80
7362;DHT22;3721;44.490;11.220;2022-10-26T16:32:45;22.60;92.80
7362;DHT22;3721;44.490;11.220;2022-10-26T16:35:11;22.60;92.90
7362;DHT22;3721;44.490;11.220;2022-10-26T16:37:37;22.50;92.90
7362;DHT22;3721;44.490;11.220;2022-10-26T16:40:04;22.50;93.00
7362;DHT22;3721;44.490;11.220;2022-10-26T16:42:31;22.40;93.00
7362;DHT22;3721;44.490;11.220;2022-10-26T16:44:57;22.30;93.00
7362;DHT22;3721;44.490;11.220;2022-10-26T16:47:23;22.30;93.00
7362;DHT22;3721;44.490;11.220;2022-10-26T16:49:49;22.20;93.00
7362;DHT22;3721;44.490;11.220;2022-10-26T16:52:15;22.20;93.10
7362;DHT22;3721;44.490;11.220;2022-10-26T16:54:41;22.10;93.10
7362;DHT22;3721;44.490;11.220;2022-10-26T16:57:06;22.10;93.10
7362;DHT22;3721;44.490;11.220;2022-10-26T16:59:32;22.10;93.20
7362;DHT22;3721;44.490;11.220;2022-10-26T17:01:58;22.00;93.20
7362;DHT22;3721;44.490;11.220;2022-10-26T17:04:24;22.00;93.20
7362;DHT22;3721;44.490;11.220;2022-10-26T17:06:50;21.90;93.20
7362;DHT22;3721;44.490;11.220;2022-10-26T17:09:15;21.90;93.20
7362;DHT22;3721;44.490;11.220;2022-10-26T17:11:41;21.80;93.20
7362;DHT22;3721;44.490;11.220;2022-10-26T17:14:07;21.80;93.20
7362;DHT22;3721;44.490;11.220;2022-10-26T17:16:32;21.70;93.30
7362;DHT22;3721;44.490;11.220;2022-10-26T17:18:59;21.70;93.40
7362;DHT22;3721;44.490;11.220;2022-10-26T17:21:31;21.70;93.40
7362;DHT22;3721;44.490;11.220;2022-10-26T17:23:58;21.70;93.50
7362;DHT22;3721;44.490;11.220;2022-10-26T17:26:24;21.60;93.60
7362;DHT22;3721;44.490;11.220;2022-10-26T17:28:54;21.60;93.60
7362;DHT22;3721;44.490;11.220;2022-10-26T17:31:22;21.60;93.70
7362;DHT22;3721;44.490;11.220;2022-10-26T17:33:48;21.50;94.00
7362;DHT22;3721;44.490;11.220;2022-10-26T17:36:17;21.50;93.80
7362;DHT22;3721;44.490;11.220;2022-10-26T17:38:47;21.50;93.90
7362;DHT22;3721;44.490;11.220;2022-10-26T17:41:15;21.50;93.90
7362;DHT22;3721;44.490;11.220;2022-10-26T17:43:42;21.50;94.00
7362;DHT22;3721;44.490;11.220;2022-10-26T17:46:19;21.50;94.00
7362;DHT22;3721;44.490;11.220;2022-10-26T17:48:47;21.50;94.00
7362;DHT22;3721;44.490;11.220;2022-10-26T17:51:17;21.50;94.00
7362;DHT22;3721;44.490;11.220;2022-10-26T17:53:47;21.40;94.00
7362;DHT22;3721;44.490;11.220;2022-10-26T17:56:18;21.40;94.00
7362;DHT22;3721;44.490;11.220;2022-10-26T17:58:43;21.40;94.10
7362;DHT22;3721;44.490;11.220;2022-10-26T18:01:11;21.40;94.10
7362;DHT22;3721;44.490;11.220;2022-10-26T18:03:38;21.30;94.10
7362;DHT22;3721;44.490;11.220;2022-10-26T18:06:05;21.30;94.10
7362;DHT22;3721;44.490;11.220;2022-10-26T18:08:37;21.30;94.10
7362;DHT22;3721;44.490;11.220;2022-10-26T18:11:05;21.30;94.10
7362;DHT22;3721;44.490;11.220;2022-10-26T18:13:32;21.20;94.20
7362;DHT22;3721;44.490;11.220;2022-10-26T18:16:07;21.20;94.20
7362;DHT22;3721;44.490;11.220;2022-10-26T18:18:33;21.20;94.30
7362;DHT22;3721;44.490;11.220;2022-10-26T18:21:04;21.20;94.30
7362;DHT22;3721;44.490;11.220;2022-10-26T18:23:30;21.20;94.30
7362;DHT22;3721;44.490;11.220;2022-10-26T18:26:08;21.20;94.40
7362;DHT22;3721;44.490;11.220;2022-10-26T18:28:34;21.20;94.40
7362;DHT22;3721;44.490;11.220;2022-10-26T18:31:01;21.20;94.40
7362;DHT22;3721;44.490;11.220;2022-10-26T18:33:27;21.10;94.30